Home > Products > Valid Products > TAF

000
FTUS43 KIND 210500
TAFLAF
TAF
KLAF 210522Z 2106/2206 23009KT P6SM SCT012 BKN080
     FM210900 23009KT P6SM SCT012 BKN080
     FM211200 28009KT P6SM SCT012
     FM211500 31015G22KT P6SM BKN025
     FM220100 36005KT P6SM SCT015
      AMD LTD TO CLD VIS AND WIND TIL 211300=



000
FTUS43 KIND 210500
TAFIND
TAF
KIND 210522Z 2106/2212 22011KT P6SM VCTS SCT040 BKN060CB
     FM210800 23009KT P6SM SCT012 BKN080
     FM211300 26009KT P6SM SCT012
     FM211600 28015G22KT P6SM BKN035
     FM220100 34008KT P6SM SCT015=



000
FTUS43 KIND 210400 AAC
TAFLAF
TAF AMD
KLAF 210441Z 2105/2124 22011KT 6SM BR VCTS SCT020 OVC035CB
     FM210700 26009KT P6SM SCT012 BKN080
     FM211200 28009KT P6SM SCT012
     FM211500 31015G22KT P6SM BKN025
     FM212300 34012KT P6SM BKN025
      AMD LTD TO CLD VIS AND WIND TIL 211300=



000
FTUS43 KIND 210400 AAB
TAFLAF
TAF AMD
KLAF 210404Z 2104/2124 22011KT 4SM BR VCTS SCT020 OVC040CB
      TEMPO 2104/2105 1 1/2SM TSRA OVC020CB
     FM210700 26009KT P6SM SCT012 BKN080
     FM211200 28009KT P6SM SCT012
     FM211500 31015G22KT P6SM BKN025
     FM212300 34012KT P6SM BKN025
      AMD LTD TO CLD VIS AND WIND TIL 211300=



000
FTUS43 KIND 210400 AAB
TAFLAF
TAF AMD
KLAF 210404Z 2104/2124 22011KT 4SM BR VCTS SCT020 OVC040CB
      TEMPO 2104/2105 1 1/2SM TSRA OVC020CB
     FM210700 26009KT P6SM SCT012 BKN080
     FM211200 28009KT P6SM SCT012
     FM211500 31015G22KT P6SM BKN025
     FM212300 34012KT P6SM BKN025
      AMD LTD TO CLD VIS AND WIND TIL 211300=



000
FTUS43 KIND 210200 AAA
TAFIND
TAF AMD
KIND 210220Z 2102/2206 22010KT P6SM SCT040 BKN080
     FM210300 22011KT P6SM VCTS SCT040 BKN060CB
     FM210800 23009KT P6SM SCT012 BKN080
     FM211300 24009KT P6SM SCT012
     FM211600 28015G22KT P6SM BKN035
     FM212300 34012KT P6SM BKN025=



000
FTUS43 KIND 210100 AAA
TAFLAF
TAF AMD
KLAF 210131Z 2102/2124 22011KT P6SM VCTS SCT020 OVC040CB
      TEMPO 2102/2104 5SM -TSRA OVC020CB
     FM210700 26009KT P6SM SCT012 BKN080
     FM211200 28009KT P6SM SCT012
     FM211500 31015G22KT P6SM BKN025
     FM212300 34012KT P6SM BKN025
      AMD LTD TO CLD VIS AND WIND TIL 211300=



000
FTUS43 KIND 202300
TAFLAF
TAF
KLAF 202320Z 2100/2124 22011KT P6SM VCTS SCT040CB OVC080
     FM210700 26009KT P6SM SCT012 BKN080
     FM211200 28009KT P6SM SCT012
     FM211500 31015G22KT P6SM BKN025
     FM212300 34012KT P6SM BKN025
      AMD LTD TO CLD VIS AND WIND 2101/2113=



000
FTUS43 KIND 202300
TAFIND
TAF
KIND 202320Z 2100/2206 22010KT P6SM SCT040 BKN080
      TEMPO 2101/2103 5SM -TSRA OVC025CB
     FM210300 22011KT P6SM VCTS SCT040 BKN060CB
     FM210800 23009KT P6SM SCT012 BKN080
     FM211300 24009KT P6SM SCT012
     FM211600 28015G22KT P6SM BKN035
     FM212300 34012KT P6SM BKN025=



000
FTUS43 KIND 202200 AAA
TAFLAF
TAF AMD
KLAF 202237Z 2023/2118 25020G30KT 2SM +TSRA OVC040CB
     FM210000 23008KT P6SM VCTS SCT040 BKN060CB
      TEMPO 2100/2101 3SM TSRA BKN025 OVC040CB
     FM210700 23009KT P6SM SCT012 SCT080 BKN250
     FM211000 26009KT P6SM SCT012
     FM211500 29015G22KT P6SM SCT025=



000
FTUS43 KIND 202000 AAA
TAFIND
TAF AMD
KIND 202021Z 2020/2124 22013G18KT P6SM SCT040 BKN250
     FM210000 22008KT P6SM FEW040 SCT080 BKN250
      TEMPO 2102/2106 3SM TSRA BKN025 OVC040CB
     FM210800 23009KT P6SM SCT012 SCT080 BKN250
     FM211300 26009KT P6SM SCT012
     FM211500 28015G22KT P6SM SCT025=



000
FTUS43 KIND 201700
TAFLAF
TAF
KLAF 201724Z 2018/2118 22014G20KT P6SM SCT040 SCT080 BKN250
     FM210000 23008KT P6SM FEW040 SCT080 BKN250
      TEMPO 2100/2104 3SM TSRA BKN025 OVC040CB
     FM210700 23009KT P6SM SCT012 SCT080 BKN250
     FM211000 26009KT P6SM SCT012
     FM211500 29015G22KT P6SM SCT025=



000
FTUS43 KIND 201700
TAFIND
TAF
KIND 201724Z 2018/2124 22013G18KT P6SM SCT040 BKN250
     FM210000 22008KT P6SM FEW040 SCT080 BKN250
      TEMPO 2102/2106 3SM TSRA BKN025 OVC040CB
     FM210800 23009KT P6SM SCT012 SCT080 BKN250
     FM211300 26009KT P6SM SCT012
     FM211500 28015G22KT P6SM SCT025=



000
FTUS43 KIND 201400 AAA
TAFLAF
TAF AMD
KLAF 201430Z 2015/2112 23012G19KT P6SM SCT040 SCT080 BKN250
     FM202100 23012KT P6SM VCTS SCT030CB BKN100
     FM202200 23010KT P6SM -TSRA BKN030CB
     FM210300 24010KT P6SM -SHRA OVC030
     FM211100 28014KT P6SM BKN030=



000
FTUS43 KIND 201400 AAA
TAFIND
TAF AMD
KIND 201419Z 2014/2118 22012G20KT P6SM SCT040 BKN250
     FM202200 23010KT P6SM VCTS SCT030CB BKN100
     FM210000 23010KT P6SM -TSRA BKN030CB
     FM210400 23010KT P6SM -SHRA OVC030
     FM211200 28014KT P6SM BKN030=



000
FTUS43 KIND 201100
TAFLAF
TAF
KLAF 201130Z 2012/2112 19004KT P6SM SCT250
     FM201500 23012G19KT P6SM SCT120 BKN250
     FM202100 23012KT P6SM VCTS SCT030CB BKN100
     FM202200 23010KT P6SM -TSRA BKN030CB
     FM210300 24010KT P6SM -SHRA OVC030
     FM211100 28014KT P6SM BKN030
      AMD LTD TO CLD VIS AND WIND TIL 201300=



000
FTUS43 KIND 201100
TAFIND
TAF
KIND 201130Z 2012/2118 20005KT P6SM SKC
     FM201500 22012G20KT P6SM SCT120 BKN250
     FM202200 23010KT P6SM VCTS SCT030CB BKN100
     FM210000 23010KT P6SM -TSRA BKN030CB
     FM210400 23010KT P6SM -SHRA OVC030
     FM211200 28014KT P6SM BKN030=



000
FTUS43 KIND 200800 AAA
TAFIND
TAF AMD
KIND 200814Z 2008/2112 17005KT P6SM SKC
     FM201500 22012G20KT P6SM SCT120 BKN250
     FM210000 23010KT P6SM VCSH SCT050 BKN120 PROB30 2103/2109 4SM
      -TSRA BKN040CB=



000
FTUS43 KIND 200500
TAFLAF
TAF
KLAF 200520Z 2006/2106 19004KT P6SM SCT250
     FM201500 23012G19KT P6SM SCT120 BKN250
     FM202100 23012KT P6SM VCSH SCT040 BKN100 PROB30 2100/2106 4SM
      -TSRA BKN040CB
      AMD LTD TO CLD VIS AND WIND TIL 201300=



000
FTUS43 KIND 200500
TAFIND
TAF
KIND 200520Z 2006/2112 16005KT P6SM SCT250
     FM201500 22012G20KT P6SM SCT120 BKN250
     FM210000 23010KT P6SM VCSH SCT050 BKN120 PROB30 2103/2109 4SM
      -TSRA BKN040CB=



000
FTUS43 KIND 200200 AAA
TAFIND
TAF AMD
KIND 200222Z 2002/2106 17006KT P6SM SCT250
     FM201500 22012G20KT P6SM SCT120 BKN250
     FM210000 23010KT P6SM VCSH SCT050 BKN120=



000
FTUS43 KIND 192300
TAFLAF
TAF
KLAF 192320Z 2000/2024 17005KT P6SM FEW250
     FM201500 23012G19KT P6SM SCT120 BKN250
     FM202100 23012G19KT P6SM VCSH SCT040 BKN100
      AMD LTD TO CLD VIS AND WIND 2001/2013=



000
FTUS43 KIND 192300
TAFIND
TAF
KIND 192320Z 2000/2106 15006KT P6SM FEW250
     FM201500 22012G20KT P6SM SCT120 BKN250
     FM210000 23010KT P6SM VCSH SCT050 BKN120=



000
FTUS43 KIND 192000 AAA
TAFIND
TAF AMD
KIND 192021Z 1920/2024 14010KT P6SM FEW250
     FM200100 13006KT P6SM FEW250
     FM201500 22012KT P6SM BKN250=



000
FTUS43 KIND 191700
TAFLAF
TAF
KLAF 191727Z 1918/2018 13011KT P6SM FEW250
     FM200100 15005KT P6SM FEW250
     FM201500 22012KT P6SM BKN250=



000
FTUS43 KIND 191700
TAFIND
TAF
KIND 191727Z 1918/2024 12010KT P6SM FEW250
     FM200100 13006KT P6SM FEW250
     FM201500 22012KT P6SM BKN250=



000
FTUS43 KIND 191400 AAA
TAFIND
TAF AMD
KIND 191419Z 1914/2018 12009KT P6SM FEW040 SCT250
     FM200100 17006KT P6SM SKC=



000
FTUS43 KIND 191100
TAFLAF
TAF
KLAF 191120Z 1912/2012 VRB04KT P6SM SKC
     FM191500 14008KT P6SM FEW040
     FM200100 18003KT P6SM SKC
      AMD LTD TO CLD VIS AND WIND TIL 191300=



000
FTUS43 KIND 191100
TAFIND
TAF
KIND 191120Z 1912/2018 10007KT P6SM SKC
     FM191500 13008KT P6SM FEW040
     FM200100 17006KT P6SM SKC=



000
FTUS43 KIND 190900 AAA
TAFLAF
TAF AMD
KLAF 190926Z 1909/2006 VRB03KT P6SM SKC
      TEMPO 1911/1913 5SM BR
     FM191400 14008KT P6SM FEW035
      AMD LTD TO CLD VIS AND WIND TIL 191300=



000
FTUS43 KIND 190800 AAA
TAFIND
TAF AMD
KIND 190806Z 1908/2012 07006KT P6SM SKC
     FM191500 12009KT P6SM FEW035
     FM200100 15006KT P6SM SKC=



000
FTUS43 KIND 190500
TAFIND
TAF
KIND 190520Z 1906/2012 07006KT P6SM SKC
     FM191500 12009KT P6SM FEW035
     FM200100 15006KT P6SM SKC=



000
FTUS43 KIND 190500
TAFLAF
TAF
KLAF 190520Z 1906/2006 07004KT P6SM SKC
     FM190900 08003KT 3SM BR SKC
     FM191400 14008KT P6SM FEW035
      AMD LTD TO CLD VIS AND WIND TIL 191300=



000
FTUS43 KIND 190200 AAA
TAFIND
TAF AMD
KIND 190225Z 1902/2006 07006KT P6SM SKC
     FM191400 12009KT P6SM FEW035=



000
FTUS43 KIND 182300
TAFLAF
TAF
KLAF 182320Z 1900/1924 07005KT P6SM SKC
      TEMPO 1907/1909 4SM BR
     FM190900 08003KT 4SM BR SKC
     FM191400 14009KT P6SM FEW035
      AMD LTD TO CLD VIS AND WIND 1901/1913=



000
FTUS43 KIND 182300
TAFIND
TAF
KIND 182320Z 1900/2006 07006KT P6SM SKC
     FM191400 12009KT P6SM FEW035=



000
FTUS43 KIND 182000 AAA
TAFIND
TAF AMD
KIND 182026Z 1820/1924 08007KT P6SM SCT040
     FM190100 07006KT P6SM SKC
     FM191500 11009KT P6SM FEW250=



000
FTUS43 KIND 181700
TAFLAF
TAF
KLAF 181726Z 1818/1918 06007KT P6SM SCT040 SCT250
     FM190100 07004KT P6SM SKC
      TEMPO 1905/1909 4SM BR
     FM190900 08003KT 4SM BR SKC
     FM191400 12009KT P6SM FEW250=



000
FTUS43 KIND 181700
TAFIND
TAF
KIND 181726Z 1818/1924 06007KT P6SM SCT040 SCT250
     FM190100 07006KT P6SM SKC
     FM191500 11009KT P6SM FEW250=



000
FTUS43 KIND 181400 AAA
TAFIND
TAF AMD
KIND 181422Z 1814/1918 05007KT P6SM SCT040 SCT250
     FM191500 12011KT P6SM FEW035=



000
FTUS43 KIND 181100
TAFIND
TAF
KIND 181120Z 1812/1918 VRB03KT 6SM BR SKC
      TEMPO 1812/1813 4SM BR
     FM181300 06007KT P6SM SCT035
     FM191500 12011KT P6SM FEW035=



000
FTUS43 KIND 181100
TAFLAF
TAF
KLAF 181120Z 1812/1912 VRB03KT 3SM BR BCFG SKC
      TEMPO 1812/1813 1 1/2SM BR
     FM181300 07006KT P6SM SCT035
      AMD LTD TO CLD VIS AND WIND TIL 181300=



000
FTUS43 KIND 180900 AAA
TAFLAF
TAF AMD
KLAF 180935Z 1810/1906 00000KT 3SM BR BCFG SCT100
      TEMPO 1810/1812 1 1/2SM BR SCT003
     FM181300 07006KT P6SM SCT035
      AMD LTD TO CLD VIS AND WIND TIL 181300=



    US Dept of Commerce
    National Oceanic and Atmospheric Administration
    National Weather Service
    1325 East West Highway
    Silver Spring, MD 20910
    Page Author: NWS Internet Services Team
Disclaimer
Information Quality
Credits
Glossary
Privacy Policy
Freedom of Information Act (FOIA)
About Us
Career Opportunities